Time;durP1;ratioP1;P1;durP2;ratioP2;P2;SDS_P1;SDS_P2;PMS_P1;PMS_P2;Temp;Humidity;BMP_temperature;BMP_pressure;BME280_temperature;BME280_humidity;BME280_pressure;Samples;Min_cycle;Max_cycle;Signal;HPM_P1;HPM_P2
2023/10/16 00:01:19;;;;;;;3.08;0.70;;;;;;;7.98;99.40;101207.94;5227926;28;20024;-71
2023/10/16 00:03:50;;;;;;;3.63;0.63;;;;;;;7.98;99.40;101216.63;5225835;28;20551;-71
2023/10/16 00:06:20;;;;;;;5.07;0.80;;;;;;;7.93;99.91;101208.03;5211068;28;20539;-71
2023/10/16 00:08:53;;;;;;;3.25;0.70;;;;;;;7.91;100.00;101209.75;5208177;28;20032;-71
2023/10/16 00:11:23;;;;;;;4.85;0.98;;;;;;;7.86;100.00;101208.13;5205196;28;20032;-71
2023/10/16 00:13:56;;;;;;;4.95;0.98;;;;;;;7.75;100.00;101208.28;5226773;28;20021;-73
2023/10/16 00:16:28;;;;;;;3.83;0.90;;;;;;;7.72;100.00;101213.50;5227545;28;20024;-72
2023/10/16 00:19:00;;;;;;;5.85;1.10;;;;;;;7.66;100.00;101213.59;5226542;28;20079;-70
2023/10/16 00:21:30;;;;;;;3.65;1.00;;;;;;;7.69;100.00;101210.13;5225672;28;20180;-72
2023/10/16 00:24:01;;;;;;;4.75;0.70;;;;;;;7.58;100.00;101219.78;5227776;28;20033;-71
2023/10/16 00:26:31;;;;;;;4.95;0.80;;;;;;;7.54;100.00;101221.56;5231352;28;20033;-69
2023/10/16 00:29:36;;;;;;;4.45;1.00;;;;;;;7.61;100.00;101215.41;5233528;28;20028;-71
2023/10/16 00:32:00;;;;;;;3.47;0.70;;;;;;;7.45;100.00;101211.28;5226966;28;20075;-71
2023/10/16 00:34:30;;;;;;;6.90;0.65;;;;;;;7.44;100.00;101213.91;5213107;28;20150;-71
2023/10/16 00:37:04;;;;;;;5.05;0.80;;;;;;;7.41;100.00;101217.41;5233995;28;20024;-71
2023/10/16 00:39:36;;;;;;;3.53;0.80;;;;;;;7.37;100.00;101214.88;5212583;28;20039;-71
2023/10/16 00:42:09;;;;;;;3.08;0.80;;;;;;;7.38;100.00;101211.38;5233230;28;20027;-71
2023/10/16 00:44:39;;;;;;;4.22;0.63;;;;;;;7.32;100.00;101211.47;5231581;28;20029;-72
2023/10/16 00:47:11;;;;;;;3.90;0.82;;;;;;;7.32;100.00;101207.13;5218182;28;20312;-71
2023/10/16 00:49:42;;;;;;;3.30;0.90;;;;;;;7.37;100.00;101205.31;5218074;28;20036;-72
2023/10/16 00:52:14;;;;;;;4.97;1.02;;;;;;;7.27;100.00;101208.03;5225525;28;20481;-71
2023/10/16 00:54:46;;;;;;;4.40;0.80;;;;;;;7.28;100.00;101208.03;5230032;28;20520;-71
2023/10/16 00:57:17;;;;;;;2.15;0.70;;;;;;;7.25;100.00;101211.56;5211987;28;20028;-72
2023/10/16 00:59:48;;;;;;;5.03;0.90;;;;;;;7.28;100.00;101208.94;5227600;28;20513;-71
2023/10/16 01:02:26;;;;;;;5.32;1.08;;;;;;;7.24;100.00;101202.88;5233030;28;20032;-71
2023/10/16 01:04:56;;;;;;;5.88;0.95;;;;;;;7.22;100.00;101207.25;5227741;28;20021;-71
2023/10/16 01:07:26;;;;;;;5.43;0.80;;;;;;;7.22;100.00;101198.56;5229869;28;20043;-72
2023/10/16 01:09:59;;;;;;;5.57;0.90;;;;;;;7.20;100.00;101195.16;5228304;28;20048;-71
2023/10/16 01:12:29;;;;;;;5.07;1.00;;;;;;;7.20;100.00;101195.16;5226811;28;20094;-71
2023/10/16 01:15:00;;;;;;;5.25;0.90;;;;;;;7.14;100.00;101190.03;5231073;28;20020;-71
2023/10/16 01:17:31;;;;;;;7.13;0.70;;;;;;;7.22;100.00;101196.84;5228909;28;20036;-73
2023/10/16 01:20:01;;;;;;;5.63;0.80;;;;;;;7.20;100.00;101189.94;5225557;28;20486;-72
2023/10/16 01:22:34;;;;;;;6.25;1.10;;;;;;;7.27;100.00;101199.41;5230663;28;20374;-71
2023/10/16 01:25:08;;;;;;;2.65;0.80;;;;;;;7.18;100.00;101196.91;5211114;28;20059;-71
2023/10/16 01:27:38;;;;;;;3.72;1.02;;;;;;;7.22;100.00;101190.78;5228304;28;20016;-71
2023/10/16 01:30:09;;;;;;;4.22;0.90;;;;;;;7.23;100.00;101193.38;5229381;28;20078;-71
2023/10/16 01:32:40;;;;;;;4.38;0.77;;;;;;;7.19;100.00;101193.41;5210166;28;20028;-71
2023/10/16 01:35:10;;;;;;;5.10;1.10;;;;;;;7.19;100.00;101188.22;5230667;28;20464;-71
2023/10/16 01:37:41;;;;;;;3.88;0.75;;;;;;;7.02;100.00;101178.03;5209899;28;20028;-70
2023/10/16 01:42:53;;;;;;;5.07;1.27;;;;;;;7.21;100.00;101184.75;5228382;28;20462;-71
2023/10/16 01:45:26;;;;;;;11.95;1.00;;;;;;;7.14;100.00;101193.47;5221384;28;20179;-70
2023/10/16 01:47:57;;;;;;;7.38;1.00;;;;;;;7.14;100.00;101192.63;5227066;28;20057;-72
2023/10/16 01:50:27;;;;;;;8.25;1.17;;;;;;;7.14;100.00;101195.22;5226204;28;20052;-72
2023/10/16 01:52:58;;;;;;;5.13;1.20;;;;;;;7.13;100.00;101185.72;5228216;28;20027;-72
2023/10/16 01:55:29;;;;;;;4.13;0.95;;;;;;;7.20;100.00;101189.94;5224903;28;20047;-70
2023/10/16 01:58:02;;;;;;;7.75;1.00;;;;;;;7.07;100.00;101181.44;5198069;28;20044;-72
2023/10/16 02:00:34;;;;;;;5.72;0.80;;;;;;;7.28;100.00;101184.66;5208034;28;20110;-70
2023/10/16 02:03:08;;;;;;;5.20;1.15;;;;;;;7.22;100.00;101182.97;5229205;28;20047;-72
2023/10/16 02:05:41;;;;;;;10.82;1.58;;;;;;;7.18;100.00;101182.19;5230471;28;20079;-71
2023/10/16 02:08:13;;;;;;;6.60;1.10;;;;;;;7.10;100.00;101190.94;5221038;28;20061;-72
2023/10/16 02:10:44;;;;;;;6.45;1.10;;;;;;;7.10;100.00;101172.75;5217017;28;20028;-71
2023/10/16 02:13:14;;;;;;;7.72;1.15;;;;;;;6.98;100.00;101184.16;5226659;28;20031;-73
2023/10/16 02:15:44;;;;;;;6.82;0.93;;;;;;;6.90;100.00;101179.94;5225434;28;20031;-70
2023/10/16 02:18:27;;;;;;;2.42;0.95;;;;;;;6.91;100.00;101187.69;5228106;28;20025;-71
2023/10/16 02:20:57;;;;;;;6.68;1.23;;;;;;;6.98;100.00;101188.47;5222181;28;20025;-72
2023/10/16 02:23:30;;;;;;;8.13;1.20;;;;;;;6.85;100.00;101179.97;5226803;28;20043;-72
2023/10/16 02:26:01;;;;;;;7.72;1.00;;;;;;;6.75;100.00;101175.75;5213741;28;20066;-73
2023/10/16 02:28:33;;;;;;;7.18;1.40;;;;;;;6.71;100.00;101183.56;5229875;28;20070;-72
2023/10/16 02:31:14;;;;;;;8.05;0.90;;;;;;;6.73;100.00;101184.44;5225420;28;20033;-73
2023/10/16 02:33:50;;;;;;;4.70;1.17;;;;;;;6.72;100.00;101183.56;5227708;28;20036;-70
2023/10/16 02:36:22;;;;;;;5.13;1.45;;;;;;;6.73;100.00;101182.69;5228768;28;20032;-72
2023/10/16 02:38:55;;;;;;;3.45;0.73;;;;;;;6.71;100.00;101183.56;5230488;28;20626;-72
2023/10/16 02:41:26;;;;;;;4.32;1.02;;;;;;;6.69;100.00;101182.72;5209244;28;20512;-72
2023/10/16 02:43:56;;;;;;;4.80;0.98;;;;;;;6.60;100.00;101186.28;5229099;28;20036;-72
2023/10/16 02:46:28;;;;;;;4.65;1.00;;;;;;;6.61;100.00;101181.97;5210823;28;20027;-71
2023/10/16 02:48:58;;;;;;;8.13;1.38;;;;;;;6.64;100.00;101182.81;5210812;28;20075;-72
2023/10/16 02:51:29;;;;;;;4.20;1.10;;;;;;;6.62;100.00;101181.94;5208255;28;20029;-72
2023/10/16 02:54:00;;;;;;;7.70;1.45;;;;;;;6.62;100.00;101189.72;5231848;28;20039;-71
2023/10/16 02:56:31;;;;;;;4.40;1.00;;;;;;;6.58;100.00;101182.84;5207337;28;20257;-72
2023/10/16 02:59:07;;;;;;;4.95;0.88;;;;;;;6.46;100.00;101179.50;5230560;28;20028;-72
2023/10/16 03:01:38;;;;;;;5.70;1.10;;;;;;;6.52;100.00;101177.72;5217378;28;20111;-71
2023/10/16 03:04:08;;;;;;;4.95;1.20;;;;;;;6.50;100.00;101179.47;5209124;28;20120;-72
2023/10/16 03:06:39;;;;;;;5.72;1.60;;;;;;;6.51;100.00;101169.94;5225913;28;20044;-71
2023/10/16 03:09:25;;;;;;;10.77;1.40;;;;;;;6.66;100.00;101175.84;5225212;28;20082;-71
2023/10/16 03:12:08;;;;;;;3.67;1.20;;;;;;;6.59;100.00;101178.53;5224658;28;20017;-71
2023/10/16 03:17:34;;;;;;;7.30;1.33;;;;;;;6.56;100.00;101171.63;5222908;28;20040;-72
2023/10/16 03:20:21;;;;;;;7.18;1.02;;;;;;;6.64;100.00;101176.72;5221935;28;20386;-72
2023/10/16 03:22:51;;;;;;;8.88;1.00;;;;;;;6.60;100.00;101180.25;5223384;28;20498;-71
2023/10/16 03:25:50;;;;;;;8.30;1.25;;;;;;;6.49;100.00;101171.69;5224583;28;20035;-72
2023/10/16 03:28:17;;;;;;;4.10;0.90;;;;;;;6.43;100.00;101172.59;5225512;28;20116;-72
2023/10/16 03:30:49;;;;;;;4.05;0.93;;;;;;;6.44;100.00;101169.13;5210237;28;20027;-70
2023/10/16 03:33:20;;;;;;;6.15;1.10;;;;;;;6.48;100.00;101177.75;5202181;28;20321;-71
2023/10/16 03:35:50;;;;;;;4.75;1.13;;;;;;;6.46;100.00;101176.91;5230045;28;20035;-71
2023/10/16 03:38:24;;;;;;;7.97;0.98;;;;;;;6.51;100.00;101178.59;5222397;28;20470;-72
2023/10/16 03:40:56;;;;;;;4.03;1.00;;;;;;;6.49;100.00;101187.25;5215875;28;20025;-71
2023/10/16 03:43:26;;;;;;;6.45;1.23;;;;;;;6.56;100.00;101175.97;5232541;28;20017;-72
2023/10/16 03:45:58;;;;;;;5.57;1.13;;;;;;;6.51;100.00;101181.19;5236691;28;20436;-71
2023/10/16 03:48:28;;;;;;;6.32;1.20;;;;;;;6.50;100.00;101188.97;5229306;28;20493;-73
2023/10/16 03:51:00;;;;;;;5.38;1.30;;;;;;;6.47;100.00;101182.09;5214181;28;20036;-71
2023/10/16 03:53:32;;;;;;;4.15;1.02;;;;;;;6.48;100.00;101191.63;5231662;28;20054;-73
2023/10/16 03:56:04;;;;;;;7.18;1.42;;;;;;;6.46;100.00;101185.53;5216240;28;20032;-72
2023/10/16 03:58:40;;;;;;;4.25;1.05;;;;;;;6.39;100.00;101183.06;5214531;28;20485;-69
2023/10/16 04:01:11;;;;;;;4.68;1.40;;;;;;;6.46;100.00;101182.09;5230203;28;20036;-70
2023/10/16 04:03:47;;;;;;;7.22;1.25;;;;;;;6.52;100.00;101184.63;5214190;28;20029;-72
2023/10/16 04:06:21;;;;;;;5.60;1.60;;;;;;;6.42;100.00;101188.22;5235015;28;20466;-72
2023/10/16 04:08:53;;;;;;;8.38;1.20;;;;;;;6.44;100.00;101189.91;5230732;28;20036;-72
2023/10/16 04:11:24;;;;;;;4.00;1.38;;;;;;;6.39;100.00;101185.66;5222357;28;20025;-72
2023/10/16 04:13:54;;;;;;;6.43;1.50;;;;;;;6.35;100.00;101181.31;5211514;28;20388;-70
2023/10/16 04:16:31;;;;;;;4.40;1.48;;;;;;;6.44;100.00;101183.84;5229789;28;20435;-69
2023/10/16 04:19:36;;;;;;;4.95;1.35;;;;;;;6.48;100.00;101183.81;5231405;28;20082;-72
2023/10/16 04:22:07;;;;;;;6.65;1.50;;;;;;;6.48;100.00;101185.53;5224015;28;20060;-71
2023/10/16 04:24:46;;;;;;;7.20;1.60;;;;;;;6.35;100.00;101174.41;5207488;28;20498;-72
2023/10/16 04:30:09;;;;;;;5.00;1.60;;;;;;;6.46;100.00;101180.34;5234515;28;20639;-72
2023/10/16 04:32:47;;;;;;;3.08;1.33;;;;;;;6.40;100.00;101180.41;5216823;28;20048;-72
2023/10/16 04:35:51;;;;;;;4.85;1.60;;;;;;;6.42;100.00;101186.47;5233849;28;20020;-72
2023/10/16 04:38:52;;;;;;;5.95;1.60;;;;;;;6.52;100.00;101185.50;5229647;28;20502;-70
2023/10/16 04:44:46;;;;;;;10.75;1.90;;;;;;;6.54;100.00;101186.34;5226005;28;20352;-73
2023/10/16 04:47:17;;;;;;;6.20;1.88;;;;;;;6.57;100.00;101182.88;5225918;28;20401;-72
2023/10/16 04:49:59;;;;;;;8.25;1.60;;;;;;;6.68;100.00;101189.69;5219536;28;20440;-72
2023/10/16 05:11:36;;;;;;;5.93;1.80;;;;;;;6.93;100.00;101185.94;5220137;28;20053;-71
2023/10/16 06:15:20;;;;;;;5.60;1.90;;;;;;;7.60;100.00;101176.41;5227000;28;20509;-72
2023/10/16 06:17:53;;;;;;;8.40;2.30;;;;;;;7.72;100.00;101192.69;5226296;28;20034;-71
2023/10/16 06:20:23;;;;;;;6.93;1.98;;;;;;;7.72;100.00;101190.09;5221682;28;20367;-70
2023/10/16 06:22:54;;;;;;;7.72;1.83;;;;;;;7.79;100.00;101189.16;5222568;28;20078;-71
2023/10/16 06:25:28;;;;;;;7.43;2.35;;;;;;;7.86;100.00;101195.13;5225093;28;20432;-69
2023/10/16 06:27:59;;;;;;;35.10;10.57;;;;;;;7.85;100.00;101198.59;5227975;28;20474;-71
2023/10/16 06:30:29;;;;;;;14.88;5.43;;;;;;;7.89;100.00;101201.13;5213242;28;20441;-71
2023/10/16 06:33:02;;;;;;;8.32;2.00;;;;;;;7.90;100.00;101202.00;5227556;28;20020;-71
2023/10/16 06:35:33;;;;;;;5.78;2.00;;;;;;;8.01;100.00;101203.53;5212656;28;20044;-72
2023/10/16 06:38:10;;;;;;;7.53;2.17;;;;;;;8.00;100.00;101207.03;5227119;28;20021;-71
2023/10/16 06:40:41;;;;;;;7.38;2.10;;;;;;;8.05;100.00;101209.56;5205631;28;20033;-72
2023/10/16 06:43:13;;;;;;;7.10;2.13;;;;;;;8.22;100.00;101212.81;5226507;28;20032;-71
2023/10/16 06:45:55;;;;;;;8.48;2.20;;;;;;;8.19;100.00;101205.06;5217297;28;20047;-71
2023/10/16 06:48:29;;;;;;;3.78;1.98;;;;;;;8.31;100.00;101208.31;5209713;28;20406;-71
2023/10/16 06:51:08;;;;;;;9.07;1.92;;;;;;;8.34;100.00;101210.88;5236299;28;20021;-72
2023/10/16 06:53:39;;;;;;;4.75;1.98;;;;;;;8.42;100.00;101211.56;5229990;28;20103;-72
2023/10/16 06:56:14;;;;;;;7.47;2.17;;;;;;;8.34;100.00;101215.19;5214662;28;20123;-71
2023/10/16 06:58:45;;;;;;;8.45;2.28;;;;;;;8.30;100.00;101213.53;5231694;28;20104;-72
2023/10/16 07:01:19;;;;;;;7.03;2.00;;;;;;;8.30;100.00;101214.41;5230251;28;20107;-72
2023/10/16 07:03:50;;;;;;;6.72;2.20;;;;;;;8.46;100.00;101217.59;5232630;28;20036;-71
2023/10/16 07:06:27;;;;;;;6.22;2.45;;;;;;;8.57;100.00;101216.53;5229649;28;20020;-72
2023/10/16 07:09:05;;;;;;;5.38;2.30;;;;;;;8.57;100.00;101216.53;5217394;28;20049;-71
2023/10/16 07:11:42;;;;;;;4.82;2.20;;;;;;;8.48;100.00;101214.09;5215886;28;20034;-71
2023/10/16 07:14:12;;;;;;;7.30;2.65;;;;;;;8.52;100.00;101213.16;5228524;28;20020;-72
2023/10/16 07:16:43;;;;;;;7.90;2.10;;;;;;;8.55;100.00;101209.66;5211955;28;20668;-70
2023/10/16 07:19:16;;;;;;;6.82;2.60;;;;;;;8.65;100.00;101212.06;5231503;28;20067;-71
2023/10/16 07:21:48;;;;;;;7.50;2.20;;;;;;;8.76;100.00;101220.53;5230987;28;20107;-72
2023/10/16 07:24:21;;;;;;;5.65;1.98;;;;;;;8.59;100.00;101221.72;5224913;28;20350;-72
2023/10/16 07:26:51;;;;;;;7.38;2.33;;;;;;;8.68;100.00;101217.22;5212894;28;20105;-73
2023/10/16 07:29:23;;;;;;;6.03;2.25;;;;;;;8.85;100.00;101219.50;5233973;28;20025;-71
2023/10/16 07:31:54;;;;;;;4.45;2.20;;;;;;;8.97;100.00;101222.78;5233837;28;20036;-73
2023/10/16 07:34:24;;;;;;;6.13;2.20;;;;;;;8.88;100.00;101222.09;5235505;28;20107;-69
2023/10/16 07:36:55;;;;;;;10.02;2.63;;;;;;;8.97;100.00;101225.38;5235132;28;20104;-69
2023/10/16 07:39:26;;;;;;;3.20;1.70;;;;;;;9.02;100.00;101225.25;5232462;28;20126;-71
2023/10/16 07:41:59;;;;;;;7.25;2.53;;;;;;;9.01;100.00;101224.41;5234784;28;20481;-72
2023/10/16 07:44:29;;;;;;;9.90;2.03;;;;;;;8.97;100.00;101222.78;5233076;28;20060;-72
2023/10/16 07:47:00;;;;;;;9.40;2.25;;;;;;;9.11;100.00;101223.38;5232064;28;20122;-72
2023/10/16 07:49:31;;;;;;;7.97;2.20;;;;;;;9.16;100.00;101221.53;5231345;28;20483;-72
2023/10/16 07:52:05;;;;;;;6.47;2.40;;;;;;;9.25;100.00;101222.19;5231856;28;20025;-72
2023/10/16 07:54:36;;;;;;;6.13;2.13;;;;;;;9.58;99.40;101220.63;5232869;28;20504;-72
2023/10/16 07:57:06;;;;;;;5.50;1.73;;;;;;;10.78;94.99;101212.53;5233831;28;20025;-73
2023/10/16 07:59:37;;;;;;;7.07;1.80;;;;;;;12.15;84.47;101207.66;5231198;28;20036;-70
2023/10/16 08:02:17;;;;;;;3.65;1.55;;;;;;;13.46;80.45;101212.66;5232018;28;20493;-72
2023/10/16 08:04:51;;;;;;;3.92;1.42;;;;;;;13.88;77.98;101205.81;5232923;28;20028;-73
2023/10/16 08:07:46;;;;;;;6.25;1.45;;;;;;;14.98;73.93;101195.88;5213487;28;20035;-72
2023/10/16 08:13:11;;;;;;;3.30;1.33;;;;;;;15.38;73.43;101190.56;5227801;28;20063;-72
2023/10/16 08:15:49;;;;;;;4.53;1.30;;;;;;;14.75;73.15;101207.47;5232047;28;20508;-71
2023/10/16 08:18:19;;;;;;;3.35;1.25;;;;;;;14.49;73.12;101205.06;5234263;28;20024;-73
2023/10/16 08:20:49;;;;;;;3.08;1.40;;;;;;;13.57;77.93;101208.72;5213768;28;20113;-71
2023/10/16 08:23:21;;;;;;;4.32;1.40;;;;;;;13.00;79.78;101213.47;5233649;28;20033;-71
2023/10/16 08:25:52;;;;;;;4.63;1.23;;;;;;;13.15;80.39;101210.31;5232301;28;20052;-72
2023/10/16 08:28:24;;;;;;;3.40;1.30;;;;;;;12.78;81.02;101213.41;5230945;28;20059;-72
2023/10/16 08:30:56;;;;;;;5.45;1.23;;;;;;;12.57;82.35;101216.72;5210970;28;20090;-73
2023/10/16 08:33:30;;;;;;;3.65;1.50;;;;;;;11.67;86.17;101210.03;5230495;28;20036;-73
2023/10/16 08:36:01;;;;;;;3.92;1.20;;;;;;;11.72;86.86;101213.34;5231308;28;20024;-71
2023/10/16 08:38:36;;;;;;;6.57;1.58;;;;;;;11.28;88.86;101226.00;5230871;28;20486;-71
2023/10/16 08:41:14;;;;;;;2.53;1.27;;;;;;;11.11;91.05;101218.59;5230971;28;20486;-70
2023/10/16 08:44:03;;;;;;;5.63;1.52;;;;;;;11.32;92.08;101212.78;5229990;28;20115;-70
2023/10/16 08:46:44;;;;;;;5.65;2.20;;;;;;;11.25;91.84;101211.22;5229517;28;20067;-72
2023/10/16 08:49:14;;;;;;;5.38;2.50;;;;;;;11.12;92.92;101217.69;5213838;28;20033;-72
2023/10/16 08:51:49;;;;;;;6.63;1.80;;;;;;;10.76;95.00;101223.06;5225227;28;20027;-72
2023/10/16 08:57:13;;;;;;;6.00;1.60;;;;;;;10.77;94.81;101222.16;5232134;28;20035;-71
2023/10/16 08:59:44;;;;;;;5.82;1.90;;;;;;;10.74;95.31;101234.44;5213900;28;20024;-71
2023/10/16 09:02:17;;;;;;;9.23;3.25;;;;;;;10.64;95.24;101230.34;5229100;28;20276;-72
2023/10/16 09:04:49;;;;;;;7.60;2.25;;;;;;;10.57;96.75;101227.03;5227795;28;20112;-72
2023/10/16 09:07:19;;;;;;;7.05;3.05;;;;;;;10.48;97.27;101235.09;5229728;28;20024;-73
2023/10/16 09:09:53;;;;;;;3.00;1.30;;;;;;;10.61;97.36;101231.28;5206513;28;20028;-70
2023/10/16 09:12:26;;;;;;;5.35;1.50;;;;;;;10.82;96.71;101224.66;5197643;28;20279;-72
2023/10/16 09:15:09;;;;;;;7.18;1.52;;;;;;;10.68;95.45;101229.38;5224867;28;20032;-71
2023/10/16 09:17:39;;;;;;;16.98;5.97;;;;;;;10.59;96.39;101233.09;5219215;28;20025;-70
2023/10/16 09:20:56;;;;;;;7.43;2.42;;;;;;;10.77;96.16;101231.75;5221135;28;20036;-71
2023/10/16 09:23:05;;;;;;;6.45;2.60;;;;;;;10.77;96.84;101234.34;5213331;28;20429;-70
2023/10/16 09:25:35;;;;;;;8.20;2.95;;;;;;;10.67;97.21;101236.34;5225930;28;20671;-72
2023/10/16 09:28:06;;;;;;;5.85;2.22;;;;;;;10.71;96.10;101229.31;5205187;28;20060;-71
2023/10/16 09:30:36;;;;;;;6.75;2.40;;;;;;;10.66;97.09;101233.81;5207491;28;20033;-71
2023/10/16 09:33:10;;;;;;;9.07;2.88;;;;;;;10.69;96.84;101228.50;5222208;28;20033;-71
2023/10/16 09:35:44;;;;;;;6.15;3.35;;;;;;;10.71;96.51;101237.16;5218103;28;20541;-72
2023/10/16 09:38:17;;;;;;;6.93;2.42;;;;;;;10.71;96.53;101237.16;5224324;28;20363;-71
2023/10/16 09:40:58;;;;;;;6.15;2.60;;;;;;;10.76;97.07;101251.81;5195120;28;20020;-70
2023/10/16 09:43:32;;;;;;;9.60;4.00;;;;;;;10.55;98.46;101254.09;5222405;28;20096;-71
2023/10/16 09:48:59;;;;;;;;;;;;;;;10.54;98.24;101253.22;5184811;28;20037;-71
2023/10/16 09:51:35;;;;;;;8.57;4.05;;;;;;;10.66;97.29;101254.72;5217681;28;19917;-71
2023/10/16 09:54:09;;;;;;;10.52;4.32;;;;;;;10.84;98.16;101254.25;5221941;28;20119;-72
2023/10/16 09:56:48;;;;;;;6.32;2.30;;;;;;;10.81;96.32;101255.16;5217031;28;20137;-73
2023/10/16 09:59:32;;;;;;;5.85;1.50;;;;;;;10.70;96.42;101253.72;5223585;28;20016;-72
2023/10/16 10:02:16;;;;;;;2.30;1.42;;;;;;;10.62;98.30;101255.66;5222380;28;20024;-73
2023/10/16 10:04:59;;;;;;;4.00;2.42;;;;;;;10.86;96.85;101252.44;5198574;28;20553;-72
2023/10/16 10:07:46;;;;;;;4.95;2.47;;;;;;;10.91;97.66;101247.94;5219098;28;20032;-71
2023/10/16 10:13:15;;;;;;;4.03;2.10;;;;;;;11.03;95.13;101257.19;5219880;28;20032;-72
2023/10/16 10:15:49;;;;;;;4.20;1.80;;;;;;;11.17;95.46;101248.97;5201053;28;20470;-72
2023/10/16 10:18:42;;;;;;;4.47;1.80;;;;;;;11.06;94.67;101241.41;5214829;28;20300;-71
2023/10/16 10:21:18;;;;;;;3.25;1.38;;;;;;;11.01;96.08;101250.28;5214310;28;20044;-72
2023/10/16 10:23:49;;;;;;;4.18;1.60;;;;;;;11.22;96.21;101250.56;5221176;28;20844;-73
2023/10/16 10:26:20;;;;;;;4.47;2.10;;;;;;;11.27;95.93;101245.22;5191949;28;20029;-72
2023/10/16 10:29:10;;;;;;;6.07;1.70;;;;;;;11.38;94.94;101243.13;5219056;28;20033;-72
2023/10/16 10:31:42;;;;;;;5.50;1.70;;;;;;;11.61;94.04;101244.22;5220537;28;20048;-71
2023/10/16 10:34:23;;;;;;;7.70;2.88;;;;;;;11.73;93.12;101243.88;5218190;28;20409;-71
2023/10/16 10:36:53;;;;;;;5.97;2.10;;;;;;;11.68;95.28;101237.94;5223028;28;20102;-73
2023/10/16 10:39:45;;;;;;;3.13;1.60;;;;;;;11.94;92.99;101230.13;5224442;28;20597;-71
2023/10/16 10:42:23;;;;;;;3.83;1.60;;;;;;;11.66;93.03;101229.25;5222973;28;20033;-71
2023/10/16 10:45:17;;;;;;;6.00;1.42;;;;;;;11.65;94.90;101226.66;5219602;28;20020;-71
2023/10/16 10:47:47;;;;;;;7.82;2.10;;;;;;;11.80;94.21;101226.22;5224817;28;20044;-72
2023/10/16 10:50:17;;;;;;;8.52;2.40;;;;;;;11.67;94.77;101215.25;5226678;28;20025;-72
2023/10/16 10:52:48;;;;;;;4.45;1.77;;;;;;;11.38;98.92;101223.06;5227847;28;20024;-72
2023/10/16 10:55:18;;;;;;;6.25;2.45;;;;;;;11.12;100.00;101235.16;5205466;28;20034;-73
2023/10/16 10:58:11;;;;;;;14.18;7.05;;;;;;;11.15;100.00;101230.72;5208028;28;20044;-71
2023/10/16 11:00:50;;;;;;;8.38;2.70;;;;;;;11.34;100.00;101231.03;5226585;28;20513;-70
2023/10/16 11:03:30;;;;;;;7.35;3.10;;;;;;;11.43;100.00;101226.41;5224039;28;20051;-72
2023/10/16 11:06:00;;;;;;;6.20;2.40;;;;;;;11.55;100.00;101222.56;5216684;28;20063;-71
2023/10/16 11:08:35;;;;;;;5.50;2.10;;;;;;;11.63;100.00;101213.63;5223573;28;20024;-72
2023/10/16 11:11:10;;;;;;;4.88;2.45;;;;;;;11.97;100.00;101216.94;5227270;28;20041;-70
2023/10/16 11:13:48;;;;;;;5.07;2.00;;;;;;;12.08;100.00;101206.09;5217602;28;20439;-70
2023/10/16 11:16:19;;;;;;;4.03;1.63;;;;;;;12.44;98.21;101207.56;5223815;28;20077;-72
2023/10/16 11:18:57;;;;;;;6.85;2.58;;;;;;;12.60;96.23;101199.13;5224281;28;20075;-71
2023/10/16 11:21:28;;;;;;;4.80;1.90;;;;;;;12.66;94.83;101198.06;5221828;28;20067;-73
2023/10/16 11:24:00;;;;;;;3.47;1.80;;;;;;;12.70;96.01;101197.91;5227701;28;20290;-72
2023/10/16 11:26:30;;;;;;;6.75;1.58;;;;;;;12.67;93.61;101200.63;5221968;28;20220;-73
2023/10/16 11:29:04;;;;;;;4.93;2.67;;;;;;;12.87;94.07;101190.31;5224417;28;20062;-72
2023/10/16 11:31:40;;;;;;;6.40;2.80;;;;;;;12.76;94.02;101189.81;5225100;28;20033;-71
2023/10/16 11:34:13;;;;;;;6.00;2.30;;;;;;;12.75;93.87;101185.50;5209672;28;20079;-71
2023/10/16 11:36:50;;;;;;;3.95;1.73;;;;;;;13.10;93.74;101191.22;5230792;28;20043;-73
2023/10/16 11:39:22;;;;;;;5.05;1.30;;;;;;;13.02;92.36;101192.41;5220348;28;20043;-72
2023/10/16 11:41:52;;;;;;;3.00;1.30;;;;;;;13.41;91.55;101185.72;5226269;28;20532;-73
2023/10/16 11:44:32;;;;;;;4.97;2.45;;;;;;;13.33;89.46;101198.28;5223648;28;20124;-72
2023/10/16 11:47:05;;;;;;;5.60;2.60;;;;;;;13.55;88.76;101189.53;5225188;28;20067;-71
2023/10/16 11:49:37;;;;;;;3.03;1.45;;;;;;;13.60;86.70;101189.38;5218543;28;20525;-73
2023/10/16 11:52:27;;;;;;;7.13;3.00;;;;;;;13.42;85.56;101190.06;5226090;28;20175;-71
2023/10/16 11:54:57;;;;;;;5.13;1.40;;;;;;;13.25;85.35;101192.47;5224052;28;20044;-72
2023/10/16 11:57:29;;;;;;;6.40;2.88;;;;;;;13.19;86.02;101193.53;5206957;28;20017;-69
2023/10/16 12:00:15;;;;;;;12.00;5.70;;;;;;;13.25;86.41;101195.94;5228564;28;20041;-70
2023/10/16 12:02:46;;;;;;;14.68;6.43;;;;;;;13.25;86.47;101197.72;5228681;28;20024;-72
2023/10/16 12:05:17;;;;;;;4.25;1.70;;;;;;;13.07;86.70;101198.38;5209863;28;20029;-72
2023/10/16 12:07:48;;;;;;;6.38;1.95;;;;;;;12.97;89.42;101196.97;5231855;28;20024;-73
2023/10/16 12:10:18;;;;;;;4.53;2.10;;;;;;;12.71;91.33;101201.38;5229489;28;20029;-72
2023/10/16 12:12:49;;;;;;;4.47;1.77;;;;;;;12.46;92.07;101196.09;5227003;28;20043;-72
2023/10/16 12:15:20;;;;;;;3.00;1.30;;;;;;;12.60;92.29;101204.38;5227663;28;20097;-73
2023/10/16 12:17:53;;;;;;;5.65;1.60;;;;;;;12.52;93.92;101206.41;5215767;28;20112;-72
2023/10/16 12:20:27;;;;;;;4.60;2.10;;;;;;;12.43;95.03;101201.47;5224492;28;20037;-73
2023/10/16 12:22:58;;;;;;;4.53;1.50;;;;;;;12.20;95.35;101201.38;5203634;28;20024;-72
2023/10/16 12:25:28;;;;;;;8.25;3.72;;;;;;;12.30;96.50;101207.16;5206416;28;20683;-71
2023/10/16 12:27:59;;;;;;;5.00;2.40;;;;;;;12.06;98.29;101205.31;5228187;28;20032;-72
2023/10/16 12:30:30;;;;;;;10.10;4.85;;;;;;;12.06;100.00;101208.78;5227535;28;20191;-72
2023/10/16 12:33:00;;;;;;;6.03;3.25;;;;;;;11.93;98.03;101210.06;5226169;28;20405;-72
2023/10/16 12:35:31;;;;;;;8.30;4.35;;;;;;;11.78;100.00;101213.16;5229083;28;20032;-71
2023/10/16 12:38:04;;;;;;;10.57;5.28;;;;;;;11.96;100.00;101202.13;5226500;28;20020;-71
2023/10/16 12:40:37;;;;;;;4.65;2.40;;;;;;;11.74;100.00;101200.19;5226439;28;20402;-72
2023/10/16 12:43:07;;;;;;;7.93;4.80;;;;;;;11.94;100.00;101198.69;5230870;28;20170;-71
2023/10/16 12:45:40;;;;;;;9.70;5.28;;;;;;;11.93;100.00;101191.75;5230181;28;20352;-72
2023/10/16 12:48:10;;;;;;;7.88;3.95;;;;;;;11.79;100.00;101193.09;5229527;28;20036;-72
2023/10/16 12:50:41;;;;;;;8.25;3.30;;;;;;;11.79;100.00;101193.09;5213115;28;20035;-70
2023/10/16 12:53:11;;;;;;;14.85;7.25;;;;;;;12.16;100.00;101184.00;5230211;28;20032;-73
2023/10/16 12:55:49;;;;;;;4.40;2.80;;;;;;;12.08;100.00;101191.25;5228135;28;20029;-72
2023/10/16 12:58:19;;;;;;;7.80;3.90;;;;;;;12.13;97.63;101183.25;5229169;28;20427;-73
2023/10/16 13:00:50;;;;;;;8.15;4.00;;;;;;;12.18;96.73;101192.69;5229199;28;20116;-73
2023/10/16 13:03:23;;;;;;;5.88;3.10;;;;;;;12.15;97.06;101187.53;5230823;28;20135;-72
2023/10/16 13:05:54;;;;;;;7.22;3.60;;;;;;;12.18;96.94;101179.59;5213149;28;20401;-73
2023/10/16 13:08:26;;;;;;;7.15;3.40;;;;;;;12.21;96.36;101179.50;5209568;28;20028;-70
2023/10/16 13:10:56;;;;;;;5.45;2.42;;;;;;;12.14;94.91;101174.50;5230115;28;20107;-74
2023/10/16 13:13:26;;;;;;;5.72;2.85;;;;;;;12.22;95.65;101178.56;5228877;28;20108;-73
2023/10/16 13:15:58;;;;;;;7.57;2.70;;;;;;;12.33;95.15;101186.09;5230601;28;20033;-72
2023/10/16 13:18:28;;;;;;;5.70;2.88;;;;;;;12.25;94.85;101177.59;5212614;28;20386;-73
2023/10/16 13:21:07;;;;;;;5.18;2.55;;;;;;;12.20;94.67;101180.41;5221491;28;20028;-72
2023/10/16 13:23:37;;;;;;;7.72;2.00;;;;;;;12.20;95.02;101174.28;5203164;28;20044;-71
2023/10/16 13:26:10;;;;;;;6.80;2.10;;;;;;;12.25;96.17;101175.84;5226723;28;20032;-71
2023/10/16 13:28:42;;;;;;;3.97;1.70;;;;;;;12.13;97.63;101178.03;5210205;28;20136;-71
2023/10/16 13:31:13;;;;;;;5.20;1.80;;;;;;;12.10;98.01;101175.50;5226608;28;20649;-72
2023/10/16 13:33:45;;;;;;;4.40;2.10;;;;;;;12.14;97.89;101180.56;5213572;28;20036;-72
2023/10/16 13:36:17;;;;;;;4.40;2.13;;;;;;;12.11;98.25;101185.91;5232828;28;20020;-73
2023/10/16 13:38:51;;;;;;;3.60;1.95;;;;;;;12.08;98.67;101193.00;5231470;28;20032;-71